Time;durP1;ratioP1;P1;durP2;ratioP2;P2;SDS_P1;SDS_P2;PMS_P1;PMS_P2;Temp;Humidity;BMP_temperature;BMP_pressure;BME280_temperature;BME280_humidity;BME280_pressure;Samples;Min_cycle;Max_cycle;Signal;HPM_P1;HPM_P2
2022/09/09 00:01:26;;;;;;;5.22;1.50;;;;;;;;;;5050541;28;20483;-74
2022/09/09 00:04:04;;;;;;;6.25;2.00;;;;;;;;;;5038432;28;20021;-74
2022/09/09 00:06:35;;;;;;;6.63;1.50;;;;;;;;;;5064498;28;20025;-74
2022/09/09 00:09:04;;;;;;;1.98;1.60;;;;;;;;;;5051058;28;20029;-73
2022/09/09 00:11:41;;;;;;;2.85;1.15;;;;;;;;;;5056771;28;20028;-74
2022/09/09 00:14:28;;;;;;;2.92;1.38;;;;;;;;;;5050563;28;20023;-73
2022/09/09 00:16:56;;;;;;;2.25;1.30;;;;;;;;;;5004733;28;20028;-73
2022/09/09 00:19:25;;;;;;;2.90;1.35;;;;;;;;;;5058466;28;20031;-74
2022/09/09 00:22:04;;;;;;;5.93;1.55;;;;;;;;;;5056435;28;20021;-73
2022/09/09 00:24:35;;;;;;;1.70;1.20;;;;;;;;;;5050257;28;20021;-73
2022/09/09 00:27:09;;;;;;;3.35;1.20;;;;;;;;;;5050070;28;20021;-72
2022/09/09 00:29:38;;;;;;;5.18;1.48;;;;;;;;;;5050133;28;20459;-73
2022/09/09 00:32:13;;;;;;;1.98;1.48;;;;;;;;;;5061096;28;20458;-74
2022/09/09 00:34:43;;;;;;;2.17;1.50;;;;;;;;;;5051279;28;20060;-73
2022/09/09 00:37:10;;;;;;;1.88;1.10;;;;;;;;;;5049914;28;20033;-73
2022/09/09 00:39:41;;;;;;;3.47;0.98;;;;;;;;;;5051425;28;20028;-74
2022/09/09 00:42:10;;;;;;;3.67;1.75;;;;;;;;;;5050243;28;20029;-74
2022/09/09 00:44:48;;;;;;;1.70;1.00;;;;;;;;;;5032007;28;20029;-73
2022/09/09 00:47:30;;;;;;;4.18;1.20;;;;;;;;;;5049337;28;20036;-74
2022/09/09 00:50:24;;;;;;;3.40;1.38;;;;;;;;;;5085196;22;20048;-74
2022/09/09 00:53:10;;;;;;;4.32;1.05;;;;;;;;;;5029686;28;20032;-76
2022/09/09 00:55:47;;;;;;;2.30;1.30;;;;;;;;;;5032730;28;20371;-76
2022/09/09 00:58:14;;;;;;;0.90;0.70;;;;;;;;;;5041324;28;20035;-74
2022/09/09 01:00:40;;;;;;;1.40;1.17;;;;;;;;;;5067327;28;20371;-77
2022/09/09 01:03:24;;;;;;;3.00;1.45;;;;;;;;;;5051772;28;20052;-76
2022/09/09 01:05:50;;;;;;;5.53;1.67;;;;;;;;;;5068511;28;20066;-73
2022/09/09 01:08:35;;;;;;;5.78;1.10;;;;;;;;;;5047256;28;20032;-76
2022/09/09 01:11:02;;;;;;;11.95;1.52;;;;;;;;;;5069509;28;20016;-77
2022/09/09 01:13:33;;;;;;;3.47;1.23;;;;;;;;;;5073175;28;20032;-76
2022/09/09 01:16:02;;;;;;;2.35;1.00;;;;;;;;;;5073439;28;20102;-76
2022/09/09 01:18:29;;;;;;;3.25;1.13;;;;;;;;;;5072304;28;20031;-74
2022/09/09 01:21:05;;;;;;;12.02;1.73;;;;;;;;;;5073030;28;20028;-75
2022/09/09 01:23:40;;;;;;;3.97;1.20;;;;;;;;;;5055321;28;20029;-74
2022/09/09 01:26:18;;;;;;;2.17;1.65;;;;;;;;;;5055065;28;20020;-74
2022/09/09 01:28:49;;;;;;;2.17;1.25;;;;;;;;;;5072217;28;20033;-77
2022/09/09 01:31:18;;;;;;;4.30;1.63;;;;;;;;;;5072837;28;20444;-73
2022/09/09 01:33:44;;;;;;;3.70;1.38;;;;;;;;;;5073014;28;20040;-75
2022/09/09 01:36:14;;;;;;;4.22;1.52;;;;;;;;;;5073147;28;20099;-75
2022/09/09 01:38:40;;;;;;;5.43;1.55;;;;;;;;;;5072021;28;20021;-75
2022/09/09 01:41:06;;;;;;;3.22;1.33;;;;;;;;;;5040878;28;20008;-75
2022/09/09 01:43:32;;;;;;;1.52;0.98;;;;;;;;;;5072788;28;20390;-77
2022/09/09 01:46:00;;;;;;;3.55;1.20;;;;;;;;;;5072714;28;20048;-76
2022/09/09 01:48:27;;;;;;;2.53;1.10;;;;;;;;;;5071902;28;20020;-77
2022/09/09 01:50:53;;;;;;;2.97;1.55;;;;;;;;;;5072476;28;20025;-76
2022/09/09 01:53:20;;;;;;;3.13;1.90;;;;;;;;;;5072452;28;20055;-74
2022/09/09 01:55:56;;;;;;;4.35;1.50;;;;;;;;;;5072401;28;20024;-74
2022/09/09 01:58:25;;;;;;;3.15;1.65;;;;;;;;;;5071870;28;20111;-76
2022/09/09 02:01:00;;;;;;;4.43;1.90;;;;;;;;;;5072358;28;20107;-74
2022/09/09 02:03:33;;;;;;;4.25;2.10;;;;;;;;;;5072723;28;20056;-74
2022/09/09 02:06:05;;;;;;;3.05;2.00;;;;;;;;;;5072611;28;20044;-75
2022/09/09 02:08:42;;;;;;;2.92;2.33;;;;;;;;;;5071099;28;20028;-73
2022/09/09 02:11:08;;;;;;;2.50;1.70;;;;;;;;;;5072433;28;20115;-76
2022/09/09 02:13:36;;;;;;;5.57;1.70;;;;;;;;;;5072997;28;20039;-76
2022/09/09 02:16:11;;;;;;;2.78;1.88;;;;;;;;;;5072657;28;20504;-75
2022/09/09 02:18:41;;;;;;;2.67;1.65;;;;;;;;;;5072200;28;20085;-74
2022/09/09 02:21:08;;;;;;;2.67;1.35;;;;;;;;;;5072435;28;20482;-74
2022/09/09 02:23:35;;;;;;;2.20;1.30;;;;;;;;;;5072569;28;20032;-76
2022/09/09 02:26:03;;;;;;;6.78;2.22;;;;;;;;;;5072618;28;20013;-75
2022/09/09 02:28:30;;;;;;;5.43;1.48;;;;;;;;;;5071608;28;20020;-76
2022/09/09 02:30:58;;;;;;;5.53;1.75;;;;;;;;;;5040413;28;20352;-75
2022/09/09 02:33:25;;;;;;;9.20;1.77;;;;;;;;;;5072197;28;20028;-75
2022/09/09 02:35:52;;;;;;;5.07;1.52;;;;;;;;;;5072159;28;20051;-74
2022/09/09 02:38:19;;;;;;;5.90;2.00;;;;;;;;;;5071446;28;20029;-77
2022/09/09 02:40:45;;;;;;;9.68;2.10;;;;;;;;;;5071517;28;20063;-76
2022/09/09 02:43:11;;;;;;;3.70;1.60;;;;;;;;;;5071420;28;20056;-75
2022/09/09 02:45:48;;;;;;;4.85;1.38;;;;;;;;;;5071880;28;20028;-75
2022/09/09 02:48:14;;;;;;;7.03;2.00;;;;;;;;;;5033581;28;20024;-76
2022/09/09 02:51:00;;;;;;;4.70;1.58;;;;;;;;;;5033911;28;20402;-76
2022/09/09 02:53:37;;;;;;;3.47;1.42;;;;;;;;;;5050256;28;20410;-77
2022/09/09 02:56:09;;;;;;;5.97;1.80;;;;;;;;;;5071432;28;20024;-77
2022/09/09 02:58:35;;;;;;;7.50;1.95;;;;;;;;;;5070907;28;20028;-76
2022/09/09 03:01:02;;;;;;;2.20;1.50;;;;;;;;;;5071101;28;20032;-76
2022/09/09 03:03:30;;;;;;;4.32;1.95;;;;;;;;;;5071399;28;20461;-76
2022/09/09 03:05:56;;;;;;;3.95;1.80;;;;;;;;;;5071095;28;20032;-76
2022/09/09 03:08:23;;;;;;;3.78;1.70;;;;;;;;;;5044330;28;20071;-75
2022/09/09 03:10:49;;;;;;;4.30;1.50;;;;;;;;;;5066154;28;20043;-75
2022/09/09 03:13:15;;;;;;;5.43;1.90;;;;;;;;;;5071172;28;20478;-77
2022/09/09 03:15:41;;;;;;;5.00;1.50;;;;;;;;;;5039897;28;20021;-77
2022/09/09 03:18:07;;;;;;;6.50;2.03;;;;;;;;;;5070368;28;20104;-76
2022/09/09 03:20:33;;;;;;;4.40;1.92;;;;;;;;;;5071492;28;20036;-75
2022/09/09 03:23:00;;;;;;;3.50;2.05;;;;;;;;;;5072232;28;20170;-75
2022/09/09 03:25:26;;;;;;;4.28;1.58;;;;;;;;;;5072718;28;20036;-76
2022/09/09 03:27:54;;;;;;;4.57;1.95;;;;;;;;;;5070884;28;20095;-76
2022/09/09 03:30:24;;;;;;;5.90;1.90;;;;;;;;;;5072693;28;20012;-76
2022/09/09 03:32:50;;;;;;;7.10;1.67;;;;;;;;;;5074089;28;20095;-77
2022/09/09 03:35:16;;;;;;;3.45;1.38;;;;;;;;;;5065729;28;20083;-76
2022/09/09 03:37:42;;;;;;;4.03;1.70;;;;;;;;;;5083236;28;20032;-76
2022/09/09 03:40:10;;;;;;;4.43;1.30;;;;;;;;;;5081052;28;20035;-76
2022/09/09 03:42:36;;;;;;;11.25;2.25;;;;;;;;;;5074794;28;20017;-76
2022/09/09 03:45:03;;;;;;;4.68;1.42;;;;;;;;;;5085472;28;20079;-73
2022/09/09 03:47:29;;;;;;;7.75;1.92;;;;;;;;;;5075491;28;20017;-77
2022/09/09 03:49:55;;;;;;;4.60;2.05;;;;;;;;;;5053591;28;20037;-76
2022/09/09 03:52:24;;;;;;;3.78;1.90;;;;;;;;;;5050056;28;20025;-75
2022/09/09 03:54:50;;;;;;;7.95;2.60;;;;;;;;;;5058107;28;20623;-75
2022/09/09 03:57:17;;;;;;;2.65;1.95;;;;;;;;;;5070387;28;20136;-75
2022/09/09 03:59:43;;;;;;;4.85;2.10;;;;;;;;;;5070994;28;20048;-76
2022/09/09 04:02:09;;;;;;;14.73;2.72;;;;;;;;;;5071179;28;20085;-76
2022/09/09 04:04:35;;;;;;;7.72;2.78;;;;;;;;;;5070914;28;20028;-77
2022/09/09 04:07:01;;;;;;;5.90;2.20;;;;;;;;;;5070496;28;20029;-76
2022/09/09 04:09:27;;;;;;;7.05;2.20;;;;;;;;;;5070725;28;20346;-78
2022/09/09 04:11:54;;;;;;;5.72;2.35;;;;;;;;;;5072558;28;20470;-77
2022/09/09 04:14:21;;;;;;;6.00;2.67;;;;;;;;;;5071933;28;20034;-77
2022/09/09 04:16:47;;;;;;;9.88;1.83;;;;;;;;;;5073166;28;20024;-75
2022/09/09 04:19:14;;;;;;;2.95;2.10;;;;;;;;;;5045739;28;20039;-76
2022/09/09 04:21:40;;;;;;;4.95;2.75;;;;;;;;;;5071009;28;20021;-76
2022/09/09 04:24:07;;;;;;;4.13;2.60;;;;;;;;;;5070568;28;20031;-76
2022/09/09 04:26:33;;;;;;;8.10;2.90;;;;;;;;;;5070707;28;20024;-76
2022/09/09 04:28:59;;;;;;;5.93;2.92;;;;;;;;;;5070003;28;20039;-77
2022/09/09 04:31:25;;;;;;;6.00;2.47;;;;;;;;;;5039062;28;20021;-76
2022/09/09 04:33:52;;;;;;;6.05;3.13;;;;;;;;;;5076044;28;20108;-76
2022/09/09 04:36:19;;;;;;;5.45;3.05;;;;;;;;;;5075400;28;20386;-76
2022/09/09 04:38:45;;;;;;;4.30;2.60;;;;;;;;;;5055665;28;20115;-76
2022/09/09 04:41:11;;;;;;;7.45;2.20;;;;;;;;;;5073779;28;20020;-77
2022/09/09 04:43:37;;;;;;;8.10;2.33;;;;;;;;;;5074231;28;20531;-78
2022/09/09 04:46:03;;;;;;;5.93;2.17;;;;;;;;;;5073597;28;20487;-75
2022/09/09 04:48:31;;;;;;;12.65;2.35;;;;;;;;;;5073262;28;20025;-75
2022/09/09 04:51:01;;;;;;;2.90;1.75;;;;;;;;;;5073943;28;20513;-76
2022/09/09 04:53:27;;;;;;;7.28;2.30;;;;;;;;;;5074029;28;20036;-77
2022/09/09 04:56:01;;;;;;;4.65;1.98;;;;;;;;;;5054161;28;20119;-77
2022/09/09 04:58:27;;;;;;;6.93;1.92;;;;;;;;;;5073065;28;20024;-78
2022/09/09 05:00:53;;;;;;;2.63;1.95;;;;;;;;;;5073638;28;20031;-77
2022/09/09 05:03:19;;;;;;;4.97;2.42;;;;;;;;;;5055831;28;20401;-75
2022/09/09 05:05:45;;;;;;;5.00;1.80;;;;;;;;;;5073533;28;20033;-75
2022/09/09 05:08:11;;;;;;;6.07;1.80;;;;;;;;;;5072965;28;20033;-77
2022/09/09 05:10:39;;;;;;;2.67;1.35;;;;;;;;;;5073835;28;20028;-76
2022/09/09 05:13:06;;;;;;;2.20;1.50;;;;;;;;;;5073266;28;20363;-76
2022/09/09 05:15:32;;;;;;;4.85;1.50;;;;;;;;;;5074183;28;20032;-76
2022/09/09 05:18:00;;;;;;;7.03;1.85;;;;;;;;;;5071398;28;20424;-75
2022/09/09 05:20:26;;;;;;;6.88;1.63;;;;;;;;;;5072985;28;20023;-74
2022/09/09 05:22:56;;;;;;;7.72;2.05;;;;;;;;;;5073440;28;20021;-75
2022/09/09 05:25:22;;;;;;;4.53;1.63;;;;;;;;;;5073584;28;20039;-76
2022/09/09 05:27:49;;;;;;;3.42;1.30;;;;;;;;;;5050896;28;20059;-77
2022/09/09 05:30:15;;;;;;;6.72;1.63;;;;;;;;;;5051751;28;20079;-77
2022/09/09 05:32:41;;;;;;;4.63;1.33;;;;;;;;;;5051176;28;20024;-76
2022/09/09 05:35:07;;;;;;;10.27;2.28;;;;;;;;;;5073295;28;20021;-75
2022/09/09 05:37:33;;;;;;;2.17;1.33;;;;;;;;;;5072250;28;20105;-76
2022/09/09 05:40:00;;;;;;;5.10;1.63;;;;;;;;;;5047253;28;20076;-77
2022/09/09 05:42:30;;;;;;;2.30;1.42;;;;;;;;;;5066935;28;20048;-76
2022/09/09 05:44:57;;;;;;;5.40;2.00;;;;;;;;;;5073114;28;20036;-77
2022/09/09 05:47:23;;;;;;;3.50;1.80;;;;;;;;;;5072241;28;20017;-76
2022/09/09 05:49:49;;;;;;;4.32;1.67;;;;;;;;;;5073669;28;20509;-76
2022/09/09 05:52:15;;;;;;;7.68;1.58;;;;;;;;;;5087462;28;20017;-76
2022/09/09 05:54:42;;;;;;;4.90;1.52;;;;;;;;;;5064345;28;20040;-76
2022/09/09 05:57:09;;;;;;;4.43;1.33;;;;;;;;;;5078399;28;20035;-72
2022/09/09 05:59:35;;;;;;;10.38;1.98;;;;;;;;;;5043388;28;20069;-75
2022/09/09 06:02:01;;;;;;;4.03;1.70;;;;;;;;;;5064287;28;20565;-74
2022/09/09 06:04:27;;;;;;;4.43;1.63;;;;;;;;;;5049680;28;20120;-75
2022/09/09 06:06:53;;;;;;;7.07;1.92;;;;;;;;;;5050160;28;20017;-77
2022/09/09 06:09:19;;;;;;;6.03;1.98;;;;;;;;;;5067428;28;20028;-75
2022/09/09 06:11:45;;;;;;;4.05;2.35;;;;;;;;;;5072240;28;20050;-75
2022/09/09 06:14:11;;;;;;;6.15;1.80;;;;;;;;;;5062889;28;20031;-77
2022/09/09 06:16:37;;;;;;;3.88;1.77;;;;;;;;;;5045326;28;20055;-75
2022/09/09 06:19:04;;;;;;;6.90;1.98;;;;;;;;;;5043677;28;20049;-74
2022/09/09 06:21:44;;;;;;;6.18;2.55;;;;;;;;;;5061661;28;20367;-77
2022/09/09 06:24:13;;;;;;;14.63;2.27;;;;;;;;;;5040131;28;20135;-77
2022/09/09 06:26:41;;;;;;;3.35;2.00;;;;;;;;;;5063955;28;20103;-76
2022/09/09 06:29:08;;;;;;;5.32;1.73;;;;;;;;;;5061794;28;20025;-73
2022/09/09 06:31:50;;;;;;;;;;;;;;;;;;;;;
2022/09/09 06:34:17;;;;;;;4.43;1.60;;;;;;;;;;5071991;28;20028;-76
2022/09/09 06:36:43;;;;;;;4.88;1.70;;;;;;;;;;5068773;28;20116;-76
2022/09/09 06:39:13;;;;;;;2.92;1.58;;;;;;;;;;5062402;28;20115;-78
2022/09/09 06:41:39;;;;;;;4.13;1.70;;;;;;;;;;5067806;28;20475;-71
2022/09/09 06:44:05;;;;;;;6.30;2.10;;;;;;;;;;5070958;28;20043;-73
2022/09/09 06:46:32;;;;;;;10.60;1.88;;;;;;;;;;5070119;28;20017;-73
2022/09/09 06:48:59;;;;;;;6.40;1.85;;;;;;;;;;5092026;22;20044;-74
2022/09/09 06:51:35;;;;;;;6.05;1.75;;;;;;;;;;5064480;28;20115;-73
2022/09/09 06:54:02;;;;;;;6.65;1.80;;;;;;;;;;5051258;28;20445;-74
2022/09/09 06:56:32;;;;;;;8.57;1.52;;;;;;;;;;5056884;28;20044;-73
2022/09/09 06:59:00;;;;;;;4.05;1.73;;;;;;;;;;5056859;28;20052;-74
2022/09/09 07:01:28;;;;;;;2.92;1.58;;;;;;;;;;5069714;28;20020;-73
2022/09/09 07:03:55;;;;;;;4.07;2.03;;;;;;;;;;5068794;28;20459;-74
2022/09/09 07:06:23;;;;;;;6.40;1.70;;;;;;;;;;5069628;28;20017;-74
2022/09/09 07:08:53;;;;;;;5.65;1.55;;;;;;;;;;5069673;28;20379;-74
2022/09/09 07:11:19;;;;;;;3.75;1.60;;;;;;;;;;5070192;28;20017;-74
2022/09/09 07:13:45;;;;;;;2.58;1.40;;;;;;;;;;5070787;28;20437;-74
2022/09/09 07:16:13;;;;;;;7.72;1.40;;;;;;;;;;5069971;28;20049;-74
2022/09/09 07:18:39;;;;;;;7.82;1.77;;;;;;;;;;5062304;28;20021;-74
2022/09/09 07:21:06;;;;;;;7.18;1.83;;;;;;;;;;5042524;28;20048;-75
2022/09/09 07:23:32;;;;;;;8.13;1.55;;;;;;;;;;5071429;28;20094;-75
2022/09/09 07:25:59;;;;;;;3.60;1.40;;;;;;;;;;5070900;28;20056;-75
2022/09/09 07:28:30;;;;;;;4.50;1.60;;;;;;;;;;5070790;28;20099;-75
2022/09/09 07:30:57;;;;;;;5.38;1.60;;;;;;;;;;5070846;28;20060;-75
2022/09/09 07:33:24;;;;;;;4.93;1.77;;;;;;;;;;5071230;28;20028;-75
2022/09/09 07:35:50;;;;;;;4.55;1.98;;;;;;;;;;5070814;28;20390;-75
2022/09/09 07:38:16;;;;;;;8.95;1.98;;;;;;;;;;5070357;28;20028;-75
2022/09/09 07:40:42;;;;;;;5.07;1.90;;;;;;;;;;5070968;28;20024;-75
2022/09/09 07:43:08;;;;;;;8.32;2.13;;;;;;;;;;5056989;28;20028;-75
2022/09/09 07:45:35;;;;;;;7.70;2.00;;;;;;;;;;5071275;28;20108;-75
2022/09/09 07:48:01;;;;;;;4.85;1.55;;;;;;;;;;5044269;28;20036;-75
2022/09/09 07:50:27;;;;;;;4.45;1.42;;;;;;;;;;5049904;28;20439;-77
2022/09/09 07:52:54;;;;;;;2.33;1.30;;;;;;;;;;5070386;28;20048;-75
2022/09/09 07:55:20;;;;;;;10.27;2.38;;;;;;;;;;5068569;28;20370;-76
2022/09/09 07:57:47;;;;;;;5.00;1.42;;;;;;;;;;5037893;28;20017;-75
2022/09/09 08:00:14;;;;;;;3.13;1.80;;;;;;;;;;5067027;28;20144;-76
2022/09/09 08:02:40;;;;;;;7.20;1.75;;;;;;;;;;5066537;28;20021;-75
2022/09/09 08:05:06;;;;;;;4.70;1.35;;;;;;;;;;5064883;28;20036;-75
2022/09/09 08:07:33;;;;;;;1.65;1.33;;;;;;;;;;5067124;28;20036;-75
2022/09/09 08:09:59;;;;;;;4.28;2.08;;;;;;;;;;5074976;28;20467;-75
2022/09/09 08:12:24;;;;;;;5.20;1.73;;;;;;;;;;5074221;28;20028;-75
2022/09/09 08:14:51;;;;;;;4.03;1.67;;;;;;;;;;5075395;28;20024;-75
2022/09/09 08:17:17;;;;;;;3.75;1.83;;;;;;;;;;5074283;28;20070;-75
2022/09/09 08:19:44;;;;;;;6.10;2.38;;;;;;;;;;5074626;28;20036;-74
2022/09/09 08:22:10;;;;;;;17.15;2.42;;;;;;;;;;5068416;28;20207;-74
2022/09/09 08:24:36;;;;;;;4.07;1.63;;;;;;;;;;5072984;28;20482;-74
2022/09/09 08:27:02;;;;;;;4.25;1.50;;;;;;;;;;5074373;28;20020;-74
2022/09/09 08:29:28;;;;;;;4.65;1.45;;;;;;;;;;5074344;28;20020;-74
2022/09/09 08:31:58;;;;;;;6.60;2.10;;;;;;;;;;5074590;28;20017;-74
2022/09/09 08:34:25;;;;;;;4.90;1.50;;;;;;;;;;5073938;28;20028;-74
2022/09/09 08:36:52;;;;;;;4.55;1.33;;;;;;;;;;5052192;28;20360;-74
2022/09/09 08:39:19;;;;;;;1.98;0.98;;;;;;;;;;5058618;28;20025;-74
2022/09/09 08:41:51;;;;;;;5.28;0.82;;;;;;;;;;5074760;28;20031;-75
2022/09/09 08:44:30;;;;;;;2.60;1.02;;;;;;;;;;5073888;28;20017;-74
2022/09/09 08:47:02;;;;;;;1.38;0.50;;;;;;;;;;5055587;28;20028;-75
2022/09/09 08:49:47;;;;;;;6.32;1.50;;;;;;;;;;5073155;28;20028;-75
2022/09/09 08:52:17;;;;;;;3.08;0.70;;;;;;;;;;5073868;28;20540;-75
2022/09/09 08:54:43;;;;;;;6.07;1.08;;;;;;;;;;5073952;28;20028;-75
2022/09/09 08:57:14;;;;;;;2.67;1.05;;;;;;;;;;5072520;28;20383;-75
2022/09/09 08:59:40;;;;;;;6.32;1.45;;;;;;;;;;5069297;28;20497;-76
2022/09/09 09:02:20;;;;;;;3.50;0.80;;;;;;;;;;5055794;28;20071;-74
2022/09/09 09:04:57;;;;;;;4.70;1.00;;;;;;;;;;5073617;28;20095;-75
2022/09/09 09:07:35;;;;;;;4.85;1.23;;;;;;;;;;5073064;28;20055;-74
2022/09/09 09:10:10;;;;;;;4.97;0.90;;;;;;;;;;5073538;28;20042;-74
2022/09/09 09:12:40;;;;;;;5.78;1.27;;;;;;;;;;5073328;28;20390;-74
2022/09/09 09:15:18;;;;;;;3.13;1.20;;;;;;;;;;5054332;28;20055;-74
2022/09/09 09:17:44;;;;;;;4.95;1.23;;;;;;;;;;5071538;28;20017;-74
2022/09/09 09:20:14;;;;;;;4.03;1.10;;;;;;;;;;5073278;28;20020;-74
2022/09/09 09:22:47;;;;;;;3.40;1.30;;;;;;;;;;5073046;28;20028;-74
2022/09/09 09:25:28;;;;;;;5.28;1.30;;;;;;;;;;5068259;28;20078;-74
2022/09/09 09:28:05;;;;;;;3.63;1.00;;;;;;;;;;5072826;28;20092;-74
2022/09/09 09:31:10;;;;;;;3.50;1.17;;;;;;;;;;5073167;28;20332;-74
2022/09/09 09:33:40;;;;;;;4.40;0.95;;;;;;;;;;4962196;28;20391;-74
2022/09/09 09:36:08;;;;;;;6.22;1.23;;;;;;;;;;4958700;28;20234;-74
2022/09/09 09:38:35;;;;;;;2.38;1.10;;;;;;;;;;5023108;28;20032;-74
2022/09/09 09:41:01;;;;;;;1.58;1.25;;;;;;;;;;5072747;28;20108;-74
2022/09/09 09:43:27;;;;;;;3.33;1.20;;;;;;;;;;5072215;28;20060;-74
2022/09/09 09:45:54;;;;;;;4.55;1.05;;;;;;;;;;5071434;28;20020;-74
2022/09/09 09:48:20;;;;;;;4.30;1.00;;;;;;;;;;5071693;28;20366;-74
2022/09/09 09:50:57;;;;;;;5.38;1.30;;;;;;;;;;5072953;28;20493;-74
2022/09/09 09:53:23;;;;;;;3.63;1.15;;;;;;;;;;5072956;28;20085;-74
2022/09/09 09:55:58;;;;;;;2.55;0.88;;;;;;;;;;5071459;28;20016;-74
2022/09/09 09:58:25;;;;;;;2.90;1.00;;;;;;;;;;5072165;28;20497;-74
2022/09/09 10:00:52;;;;;;;5.25;1.27;;;;;;;;;;5072568;28;20028;-74
2022/09/09 10:03:27;;;;;;;5.63;1.30;;;;;;;;;;5054526;28;20020;-74
2022/09/09 10:05:53;;;;;;;5.15;1.27;;;;;;;;;;5072496;28;20020;-74
2022/09/09 10:08:20;;;;;;;4.20;0.77;;;;;;;;;;5072049;28;20036;-74
2022/09/09 10:10:55;;;;;;;4.50;1.02;;;;;;;;;;5072503;28;20021;-74
2022/09/09 10:13:32;;;;;;;3.47;0.90;;;;;;;;;;5071389;28;20096;-74
2022/09/09 10:16:03;;;;;;;4.35;1.10;;;;;;;;;;5063445;28;20080;-74
2022/09/09 10:18:49;;;;;;;3.03;0.70;;;;;;;;;;5071855;28;20501;-74
2022/09/09 10:21:16;;;;;;;3.25;1.02;;;;;;;;;;5054231;28;20497;-74
2022/09/09 10:24:01;;;;;;;3.55;0.90;;;;;;;;;;5072440;28;20046;-75
2022/09/09 10:26:33;;;;;;;3.92;0.95;;;;;;;;;;5072507;28;20095;-75
2022/09/09 10:28:59;;;;;;;5.03;1.20;;;;;;;;;;5071549;28;20031;-74
2022/09/09 10:31:50;;;;;;;4.95;1.15;;;;;;;;;;5071455;28;20099;-76
2022/09/09 10:34:52;;;;;;;3.77;0.90;;;;;;;;;;5072191;28;20229;-74
2022/09/09 10:37:36;;;;;;;4.88;1.30;;;;;;;;;;4970604;28;20357;-75
2022/09/09 10:40:12;;;;;;;5.70;1.27;;;;;;;;;;5053627;28;20036;-73
2022/09/09 10:42:38;;;;;;;4.38;1.02;;;;;;;;;;5071982;28;20032;-74
2022/09/09 10:45:04;;;;;;;4.75;1.30;;;;;;;;;;5071803;28;20032;-75
2022/09/09 10:47:33;;;;;;;4.88;1.10;;;;;;;;;;5053176;28;20058;-74
2022/09/09 10:49:59;;;;;;;3.50;1.30;;;;;;;;;;5071905;28;20036;-75
2022/09/09 10:52:28;;;;;;;3.97;1.23;;;;;;;;;;5071609;28;20060;-74
2022/09/09 10:54:57;;;;;;;4.38;1.10;;;;;;;;;;5071619;28;20024;-75
2022/09/09 10:57:28;;;;;;;1.80;1.05;;;;;;;;;;5069852;28;20032;-75
2022/09/09 10:59:56;;;;;;;6.40;1.83;;;;;;;;;;5053420;28;20486;-75
2022/09/09 11:02:22;;;;;;;6.15;1.80;;;;;;;;;;5071460;28;20039;-75
2022/09/09 11:04:58;;;;;;;4.05;1.02;;;;;;;;;;5071476;28;20561;-75
2022/09/09 11:07:30;;;;;;;4.63;1.50;;;;;;;;;;5049883;28;20150;-74
2022/09/09 11:10:01;;;;;;;5.10;1.52;;;;;;;;;;5078783;28;20025;-75
2022/09/09 11:12:27;;;;;;;4.95;1.63;;;;;;;;;;5076166;28;20020;-75
2022/09/09 11:15:07;;;;;;;6.63;1.50;;;;;;;;;;5071336;28;20367;-75
2022/09/09 11:17:54;;;;;;;7.07;1.55;;;;;;;;;;5070342;28;20032;-75
2022/09/09 11:20:20;;;;;;;3.50;1.48;;;;;;;;;;5068995;28;20063;-75
2022/09/09 11:22:49;;;;;;;3.70;1.00;;;;;;;;;;5069949;28;20479;-75
2022/09/09 11:25:33;;;;;;;4.18;1.45;;;;;;;;;;5068957;28;20020;-75
2022/09/09 11:28:11;;;;;;;5.15;1.70;;;;;;;;;;5071343;28;20020;-75
2022/09/09 11:30:50;;;;;;;4.35;1.30;;;;;;;;;;5064699;28;20028;-75
2022/09/09 11:33:30;;;;;;;3.03;1.27;;;;;;;;;;5058792;28;20025;-75
2022/09/09 11:36:05;;;;;;;4.00;1.45;;;;;;;;;;5070886;28;20027;-76
2022/09/09 11:38:45;;;;;;;4.15;1.70;;;;;;;;;;5070365;28;20025;-75
2022/09/09 11:41:13;;;;;;;2.50;1.10;;;;;;;;;;5070638;28;20382;-75
2022/09/09 11:43:40;;;;;;;3.85;1.33;;;;;;;;;;5070808;28;20577;-75
2022/09/09 11:46:07;;;;;;;4.38;1.33;;;;;;;;;;5070658;28;20043;-76
2022/09/09 11:48:38;;;;;;;2.55;1.17;;;;;;;;;;5070429;28;20482;-75
2022/09/09 11:51:08;;;;;;;2.80;1.33;;;;;;;;;;5070426;28;20016;-75
2022/09/09 11:53:36;;;;;;;3.58;1.25;;;;;;;;;;5071175;28;20359;-76
2022/09/09 11:56:02;;;;;;;4.07;1.42;;;;;;;;;;5052048;28;20021;-76
2022/09/09 11:58:32;;;;;;;3.65;1.13;;;;;;;;;;5068525;28;20478;-75
2022/09/09 12:00:58;;;;;;;3.72;1.58;;;;;;;;;;5066586;28;20017;-75
2022/09/09 12:03:33;;;;;;;6.53;1.75;;;;;;;;;;5068937;28;20514;-75
2022/09/09 12:06:00;;;;;;;4.50;1.50;;;;;;;;;;5069393;28;20501;-75
2022/09/09 12:08:29;;;;;;;3.63;1.17;;;;;;;;;;5050198;28;20351;-75
2022/09/09 12:10:56;;;;;;;6.15;1.50;;;;;;;;;;5068909;28;20116;-75
2022/09/09 12:13:23;;;;;;;4.53;1.63;;;;;;;;;;5052167;28;20549;-75
2022/09/09 12:15:57;;;;;;;7.25;2.42;;;;;;;;;;5070786;28;20051;-75
2022/09/09 12:18:25;;;;;;;3.75;1.58;;;;;;;;;;5070807;28;20211;-75
2022/09/09 12:21:11;;;;;;;7.10;2.05;;;;;;;;;;5071125;28;20023;-74
2022/09/09 12:23:42;;;;;;;5.78;1.70;;;;;;;;;;5036543;28;20479;-75
2022/09/09 12:26:27;;;;;;;4.43;1.40;;;;;;;;;;5073150;28;20021;-75
2022/09/09 12:29:05;;;;;;;4.85;1.45;;;;;;;;;;5071655;28;20028;-74
2022/09/09 12:31:35;;;;;;;3.88;1.60;;;;;;;;;;5059433;28;20063;-74
2022/09/09 12:34:11;;;;;;;6.43;1.55;;;;;;;;;;5071932;28;20024;-75
2022/09/09 12:36:38;;;;;;;4.00;1.40;;;;;;;;;;5061118;28;20024;-74
2022/09/09 12:39:17;;;;;;;2.00;1.00;;;;;;;;;;5070414;28;20088;-74
2022/09/09 12:41:52;;;;;;;4.90;1.52;;;;;;;;;;5071250;28;20052;-75
2022/09/09 12:44:18;;;;;;;5.13;1.48;;;;;;;;;;5070402;28;20016;-75
2022/09/09 12:46:46;;;;;;;4.68;1.63;;;;;;;;;;5070660;28;20028;-74
2022/09/09 12:51:57;;;;;;;3.63;1.10;;;;;;;;;;5068585;28;20051;-74
2022/09/09 12:54:27;;;;;;;7.47;1.67;;;;;;;;;;5056187;28;20025;-73
2022/09/09 12:56:54;;;;;;;6.18;1.85;;;;;;;;;;5072498;28;20430;-71
2022/09/09 12:59:40;;;;;;;5.85;1.60;;;;;;;;;;5068625;28;20040;-73
2022/09/09 13:02:18;;;;;;;4.45;1.23;;;;;;;;;;5028023;28;20028;-72
2022/09/09 13:04:46;;;;;;;3.40;1.48;;;;;;;;;;5052440;28;20033;-72
2022/09/09 13:07:13;;;;;;;3.90;1.50;;;;;;;;;;5052830;28;20045;-73
2022/09/09 13:09:39;;;;;;;4.60;1.13;;;;;;;;;;5053070;28;20018;-73
2022/09/09 13:12:07;;;;;;;6.00;1.30;;;;;;;;;;5053306;28;20070;-73
2022/09/09 13:14:37;;;;;;;4.38;1.40;;;;;;;;;;5035486;28;20115;-72
2022/09/09 13:17:04;;;;;;;5.38;1.35;;;;;;;;;;5052989;28;20021;-70
2022/09/09 13:19:32;;;;;;;3.15;1.25;;;;;;;;;;5052725;28;20017;-70
2022/09/09 13:21:59;;;;;;;3.35;1.23;;;;;;;;;;5035319;28;20510;-73
2022/09/09 13:24:29;;;;;;;3.75;1.33;;;;;;;;;;5052929;28;20025;-72
2022/09/09 13:26:56;;;;;;;2.63;1.13;;;;;;;;;;5051527;28;20029;-72
2022/09/09 13:29:22;;;;;;;2.70;1.20;;;;;;;;;;5032615;28;20125;-74
2022/09/09 13:31:52;;;;;;;3.08;1.15;;;;;;;;;;5051849;28;20051;-73
2022/09/09 13:34:29;;;;;;;1.92;0.80;;;;;;;;;;5053298;28;20032;-73
2022/09/09 13:37:08;;;;;;;5.18;1.13;;;;;;;;;;5061571;28;20029;-74
2022/09/09 13:39:36;;;;;;;3.03;1.00;;;;;;;;;;5050843;28;20040;-71
2022/09/09 13:42:03;;;;;;;3.47;1.00;;;;;;;;;;5052510;28;20020;-73
2022/09/09 13:44:37;;;;;;;2.08;0.80;;;;;;;;;;5052807;28;20053;-72
2022/09/09 13:47:29;;;;;;;3.05;1.20;;;;;;;;;;5052872;28;20032;-71
2022/09/09 13:49:55;;;;;;;2.03;0.77;;;;;;;;;;5052927;28;20060;-71
2022/09/09 13:52:22;;;;;;;2.70;0.80;;;;;;;;;;5053125;28;20049;-72
2022/09/09 13:54:51;;;;;;;3.10;0.88;;;;;;;;;;5066554;28;20025;-72
2022/09/09 13:57:19;;;;;;;3.70;1.10;;;;;;;;;;5051513;28;20025;-73
2022/09/09 13:59:45;;;;;;;1.98;0.98;;;;;;;;;;5057231;28;20104;-73
2022/09/09 14:02:11;;;;;;;4.43;1.27;;;;;;;;;;5053164;28;20040;-73
2022/09/09 14:04:37;;;;;;;4.28;1.25;;;;;;;;;;5052522;28;20509;-73
2022/09/09 14:07:04;;;;;;;3.75;1.25;;;;;;;;;;5052347;28;20064;-71
2022/09/09 14:09:30;;;;;;;4.38;1.30;;;;;;;;;;5052260;28;20100;-73
2022/09/09 14:11:56;;;;;;;3.30;0.80;;;;;;;;;;5053163;28;20047;-73
2022/09/09 14:14:22;;;;;;;3.17;0.90;;;;;;;;;;5052526;28;20479;-73
2022/09/09 14:16:48;;;;;;;2.53;1.17;;;;;;;;;;5052284;28;20021;-74
2022/09/09 14:19:13;;;;;;;4.20;1.27;;;;;;;;;;5051795;28;20094;-72
2022/09/09 14:21:40;;;;;;;5.95;1.23;;;;;;;;;;5034480;28;20029;-72
2022/09/09 14:24:06;;;;;;;2.42;1.13;;;;;;;;;;5052216;28;20032;-71
2022/09/09 14:26:32;;;;;;;3.05;1.38;;;;;;;;;;5052527;28;20025;-73
2022/09/09 14:29:00;;;;;;;2.92;1.20;;;;;;;;;;5051860;28;20027;-72
2022/09/09 14:31:26;;;;;;;5.68;1.20;;;;;;;;;;5051987;28;20017;-73
2022/09/09 14:33:52;;;;;;;2.38;1.30;;;;;;;;;;5052216;28;20574;-72
2022/09/09 14:36:19;;;;;;;4.53;1.23;;;;;;;;;;5051800;28;20020;-73
2022/09/09 14:38:45;;;;;;;2.55;1.25;;;;;;;;;;5051768;28;20104;-72
2022/09/09 14:41:11;;;;;;;7.03;1.60;;;;;;;;;;5053357;28;20074;-74
2022/09/09 14:43:38;;;;;;;3.17;1.33;;;;;;;;;;5035388;28;20052;-72
2022/09/09 14:46:07;;;;;;;4.70;1.38;;;;;;;;;;5054278;28;20104;-74
2022/09/09 14:48:33;;;;;;;2.85;1.50;;;;;;;;;;5053356;28;20071;-72
2022/09/09 14:51:05;;;;;;;2.85;1.45;;;;;;;;;;5053109;28;20032;-71
2022/09/09 14:53:31;;;;;;;2.97;1.17;;;;;;;;;;5052830;28;20025;-73
2022/09/09 14:56:04;;;;;;;4.38;1.00;;;;;;;;;;5053183;28;20028;-73
2022/09/09 14:58:33;;;;;;;3.28;1.00;;;;;;;;;;5056503;28;20021;-72
2022/09/09 15:01:13;;;;;;;3.15;1.20;;;;;;;;;;5052730;28;20021;-72